Time;durP1;ratioP1;P1;durP2;ratioP2;P2;SDS_P1;SDS_P2;PMS_P1;PMS_P2;Temp;Humidity;BMP_temperature;BMP_pressure;BME280_temperature;BME280_humidity;BME280_pressure;Samples;Min_cycle;Max_cycle;Signal;HPM_P1;HPM_P2
2023/11/04 00:03:23;;;;;;;1.3;0.5;;;;;;;8.04;73.02;;;;;
2023/11/04 00:14:23;;;;;;;0.8;0.5;;;;;;;7.86;73.51;;;;;
2023/11/04 00:25:23;;;;;;;0.8;0.5;;;;;;;7.82;73.72;;;;;
2023/11/04 00:35:23;;;;;;;0.8;0.5;;;;;;;7.67;73.98;;;;;
2023/11/04 00:45:23;;;;;;;0.6;0.4;;;;;;;7.63;74.05;;;;;
2023/11/04 00:55:23;;;;;;;0.6;0.4;;;;;;;7.51;74.33;;;;;
2023/11/04 01:05:23;;;;;;;0.6;0.4;;;;;;;7.36;75.07;;;;;
2023/11/04 01:15:23;;;;;;;0.9;0.6;;;;;;;7.31;75.38;;;;;
2023/11/04 01:25:23;;;;;;;0.9;0.6;;;;;;;7.4;75.57;;;;;
2023/11/04 01:36:23;;;;;;;0.9;0.6;;;;;;;7.54;75.07;;;;;
2023/11/04 01:46:23;;;;;;;1.1;0.5;;;;;;;7.66;74.4;;;;;
2023/11/04 01:56:23;;;;;;;1.1;0.5;;;;;;;7.81;74.43;;;;;
2023/11/04 02:06:23;;;;;;;1.1;0.5;;;;;;;7.78;73.61;;;;;
2023/11/04 02:17:23;;;;;;;1.1;0.5;;;;;;;7.55;73.78;;;;;
2023/11/04 02:28:23;;;;;;;1.1;0.5;;;;;;;7.49;74.25;;;;;
2023/11/04 02:38:23;;;;;;;1.1;0.5;;;;;;;7.49;74.04;;;;;
2023/11/04 02:49:23;;;;;;;1.6;0.8;;;;;;;7.34;74.03;;;;;
2023/11/04 03:00:23;;;;;;;1.6;0.8;;;;;;;7.14;74.15;;;;;
2023/11/04 03:10:23;;;;;;;1.3;0.6;;;;;;;6.82;75.11;;;;;
2023/11/04 03:21:23;;;;;;;1.3;0.6;;;;;;;6.45;76.86;;;;;
2023/11/04 03:31:23;;;;;;;1.3;0.6;;;;;;;6.39;77.41;;;;;
2023/11/04 03:41:23;;;;;;;2.3;0.9;;;;;;;6.27;78.46;;;;;
2023/11/04 03:51:25;;;;;;;2.3;0.9;;;;;;;6.22;78.57;;;;;
2023/11/04 04:02:23;;;;;;;2.3;0.9;;;;;;;6.35;78.05;;;;;
2023/11/04 04:13:23;;;;;;;1.3;0.7;;;;;;;6.53;77.05;;;;;
2023/11/04 04:24:23;;;;;;;1.3;0.7;;;;;;;6.8;75.72;;;;;
2023/11/04 04:35:23;;;;;;;1.3;0.7;;;;;;;6.91;75.1;;;;;
2023/11/04 04:45:24;;;;;;;1.5;0.5;;;;;;;7.02;75.48;;;;;
2023/11/04 04:56:23;;;;;;;1.5;0.5;;;;;;;7.26;74.48;;;;;
2023/11/04 05:07:23;;;;;;;1.5;0.5;;;;;;;7.44;75.3;;;;;
2023/11/04 05:18:23;;;;;;;1.9;0.8;;;;;;;7.46;76.27;;;;;
2023/11/04 05:28:23;;;;;;;1.9;0.8;;;;;;;7.52;74.51;;;;;
2023/11/04 05:38:27;;;;;;;1.9;0.8;;;;;;;7.71;72.83;;;;;
2023/11/04 05:49:23;;;;;;;0.7;0.6;;;;;;;7.8;72.61;;;;;
2023/11/04 06:00:23;;;;;;;0.7;0.6;;;;;;;7.81;73.23;;;;;
2023/11/04 06:10:23;;;;;;;2.2;0.7;;;;;;;7.9;73.9;;;;;
2023/11/04 06:20:23;;;;;;;2.2;0.7;;;;;;;8.07;74.08;;;;;
2023/11/04 06:31:23;;;;;;;2.2;0.7;;;;;;;8.18;73.52;;;;;
2023/11/04 06:41:23;;;;;;;1.6;0.8;;;;;;;8.17;72.68;;;;;
2023/11/04 06:51:23;;;;;;;1.6;0.8;;;;;;;7.99;73.02;;;;;
2023/11/04 07:02:24;;;;;;;1.6;0.8;;;;;;;8.13;73.18;;;;;
2023/11/04 07:12:23;;;;;;;1.3;0.8;;;;;;;8.13;73.06;;;;;
2023/11/04 07:23:23;;;;;;;1.3;0.8;;;;;;;8.27;72.78;;;;;
2023/11/04 07:34:30;;;;;;;1.3;0.8;;;;;;;8.69;70.61;;;;;
2023/11/04 07:45:23;;;;;;;1.9;1;;;;;;;9.14;69.33;;;;;
2023/11/04 07:55:23;;;;;;;1.9;1;;;;;;;9.26;69.35;;;;;
2023/11/04 08:06:23;;;;;;;1.9;1;;;;;;;9.53;68.52;;;;;
2023/11/04 08:16:23;;;;;;;2.2;0.7;;;;;;;9.93;68;;;;;
2023/11/04 08:27:23;;;;;;;2.2;0.7;;;;;;;10.31;66.98;;;;;
2023/11/04 08:37:23;;;;;;;2.2;0.7;;;;;;;10.62;64.8;;;;;
2023/11/04 08:48:23;;;;;;;1.9;0.8;;;;;;;10.73;64.16;;;;;
2023/11/04 08:59:23;;;;;;;1.9;0.8;;;;;;;10.91;64.41;;;;;
2023/11/04 09:09:23;;;;;;;3.6;1.2;;;;;;;10.81;63.55;;;;;
2023/11/04 09:20:23;;;;;;;3.6;1.2;;;;;;;10.89;63.99;;;;;
2023/11/04 09:30:23;;;;;;;3.6;1.2;;;;;;;11.04;62.79;;;;;
2023/11/04 09:40:24;;;;;;;2.5;1.3;;;;;;;10.86;63.48;;;;;
2023/11/04 09:50:23;;;;;;;2.5;1.3;;;;;;;10.54;63.85;;;;;
2023/11/04 10:00:23;;;;;;;2.5;1.3;;;;;;;10.83;64.92;;;;;
2023/11/04 10:11:23;;;;;;;2.8;1.2;;;;;;;11.24;62.71;;;;;
2023/11/04 10:21:23;;;;;;;2.8;1.2;;;;;;;11.4;60;;;;;
2023/11/04 10:31:23;;;;;;;2.8;1.2;;;;;;;11.61;58.51;;;;;
2023/11/04 10:41:23;;;;;;;2.7;1.2;;;;;;;11.86;58.64;;;;;
2023/11/04 10:51:23;;;;;;;2.7;1.2;;;;;;;12.01;58.72;;;;;
2023/11/04 11:01:23;;;;;;;2.7;1.2;;;;;;;12.12;57.92;;;;;
2023/11/04 11:11:23;;;;;;;2.8;1.1;;;;;;;12.35;55.64;;;;;
2023/11/04 11:21:23;;;;;;;2.8;1.1;;;;;;;12.67;58.03;;;;;
2023/11/04 11:32:25;;;;;;;2.8;1.1;;;;;;;12.86;54.68;;;;;
2023/11/04 11:42:23;;;;;;;2.9;1.3;;;;;;;13.05;53.71;;;;;
2023/11/04 11:52:23;;;;;;;2.9;1.3;;;;;;;13.09;55.05;;;;;
2023/11/04 12:03:23;;;;;;;2.9;1.3;;;;;;;12.95;53.7;;;;;
2023/11/04 12:13:23;;;;;;;4.2;1.7;;;;;;;13;53.24;;;;;
2023/11/04 12:23:27;;;;;;;4.2;1.7;;;;;;;13.19;53.21;;;;;
2023/11/04 12:33:23;;;;;;;4.2;1.7;;;;;;;13.1;52.33;;;;;
2023/11/04 12:44:23;;;;;;;3.6;1.4;;;;;;;13.06;53.37;;;;;
2023/11/04 12:55:24;;;;;;;3.6;1.4;;;;;;;12.77;55;;;;;
2023/11/04 13:05:23;;;;;;;3.6;1.4;;;;;;;12.72;55.65;;;;;
2023/11/04 13:16:23;;;;;;;5.6;2.1;;;;;;;12.73;54.72;;;;;
2023/11/04 13:27:23;;;;;;;5.6;2.1;;;;;;;12.45;54.64;;;;;
2023/11/04 13:38:24;;;;;;;7.1;3.1;;;;;;;12.21;55.93;;;;;
2023/11/04 13:49:23;;;;;;;7.1;3.1;;;;;;;11.86;56.73;;;;;
2023/11/04 13:59:23;;;;;;;7.1;3.1;;;;;;;11.72;57.98;;;;;
2023/11/04 14:09:23;;;;;;;6.4;3.1;;;;;;;11.3;61.09;;;;;
2023/11/04 14:20:24;;;;;;;6.4;3.1;;;;;;;11.26;61.73;;;;;
2023/11/04 14:31:23;;;;;;;6.4;3.1;;;;;;;11.03;62.57;;;;;
2023/11/04 14:42:24;;;;;;;9;4.9;;;;;;;10.7;62.86;;;;;
2023/11/04 14:52:23;;;;;;;9;4.9;;;;;;;10.44;63.96;;;;;
2023/11/04 15:03:23;;;;;;;9;4.9;;;;;;;10.17;65.77;;;;;
2023/11/04 15:13:23;;;;;;;6.1;3.4;;;;;;;9.94;66.69;;;;;
2023/11/04 15:23:23;;;;;;;6.1;3.4;;;;;;;9.66;68.48;;;;;
2023/11/04 15:34:24;;;;;;;6.1;3.4;;;;;;;9.3;68.53;;;;;
2023/11/04 15:45:24;;;;;;;10.5;5.5;;;;;;;8.86;69.65;;;;;
2023/11/04 15:55:23;;;;;;;10.5;5.5;;;;;;;8.38;70.26;;;;;
2023/11/04 16:05:24;;;;;;;10.5;5.5;;;;;;;7.9;71.95;;;;;
2023/11/04 16:15:28;;;;;;;15.7;8;;;;;;;7.4;74.15;;;;;
2023/11/04 16:26:23;;;;;;;15.7;8;;;;;;;6.98;74.67;;;;;
2023/11/04 16:36:23;;;;;;;15.7;8;;;;;;;6.72;77.28;;;;;
2023/11/04 16:47:24;;;;;;;19.2;11.7;;;;;;;6.7;79.56;;;;;
2023/11/04 16:58:23;;;;;;;19.2;11.7;;;;;;;6.67;79.46;;;;;
2023/11/04 17:08:23;;;;;;;22.9;13.2;;;;;;;6.55;79.29;;;;;
2023/11/04 17:19:23;;;;;;;22.9;13.2;;;;;;;6.29;79.17;;;;;
2023/11/04 17:30:23;;;;;;;22.9;13.2;;;;;;;6.04;79.69;;;;;
2023/11/04 17:41:23;;;;;;;29;12.8;;;;;;;5.96;81.91;;;;;
2023/11/04 17:52:23;;;;;;;29;12.8;;;;;;;5.7;80.82;;;;;
2023/11/04 18:02:23;;;;;;;29;12.8;;;;;;;5.39;80.88;;;;;
2023/11/04 18:12:24;;;;;;;34.2;16.1;;;;;;;5.12;81.3;;;;;
2023/11/04 18:22:23;;;;;;;34.2;16.1;;;;;;;4.96;81.6;;;;;
2023/11/04 18:33:23;;;;;;;34.2;16.1;;;;;;;4.75;82.55;;;;;
2023/11/04 18:43:23;;;;;;;50.4;27.1;;;;;;;4.54;82.86;;;;;
2023/11/04 18:54:23;;;;;;;50.4;27.1;;;;;;;4.48;84.38;;;;;
2023/11/04 19:05:23;;;;;;;50.4;27.1;;;;;;;4.33;83.68;;;;;
2023/11/04 19:15:23;;;;;;;25;14.4;;;;;;;4.17;83.46;;;;;
2023/11/04 19:26:23;;;;;;;25;14.4;;;;;;;4.02;83.86;;;;;
2023/11/04 19:37:23;;;;;;;25;14.4;;;;;;;3.8;85.13;;;;;
2023/11/04 19:47:23;;;;;;;59.1;27.9;;;;;;;3.69;85.27;;;;;
2023/11/04 19:57:23;;;;;;;59.1;27.9;;;;;;;3.53;85.35;;;;;
2023/11/04 20:07:23;;;;;;;59.1;27.9;;;;;;;3.45;85.51;;;;;
2023/11/04 20:18:23;;;;;;;23.9;12.7;;;;;;;3.34;87.23;;;;;
2023/11/04 20:28:23;;;;;;;23.9;12.7;;;;;;;3.29;86.9;;;;;
2023/11/04 20:38:23;;;;;;;23.8;13.1;;;;;;;3.2;86.76;;;;;
2023/11/04 20:49:23;;;;;;;23.8;13.1;;;;;;;3.13;87.91;;;;;
2023/11/04 20:59:23;;;;;;;23.8;13.1;;;;;;;3.04;86.78;;;;;
2023/11/04 21:10:23;;;;;;;33.9;18.6;;;;;;;2.89;86.57;;;;;
2023/11/04 21:20:24;;;;;;;33.9;18.6;;;;;;;2.8;86.61;;;;;
2023/11/04 21:31:23;;;;;;;33.9;18.6;;;;;;;2.69;86.93;;;;;
2023/11/04 21:41:23;;;;;;;22.9;13.7;;;;;;;2.66;86.82;;;;;
2023/11/04 21:52:23;;;;;;;22.9;13.7;;;;;;;2.8;86.89;;;;;
2023/11/04 22:02:24;;;;;;;22.9;13.7;;;;;;;3.08;86.65;;;;;
2023/11/04 22:13:23;;;;;;;9.9;3.6;;;;;;;3.66;85.35;;;;;
2023/11/04 22:23:24;;;;;;;9.9;3.6;;;;;;;3.86;84.38;;;;;
2023/11/04 22:34:23;;;;;;;9.9;3.6;;;;;;;4;83.8;;;;;
2023/11/04 22:44:23;;;;;;;3.8;2;;;;;;;4.16;83.35;;;;;
2023/11/04 22:55:23;;;;;;;3.8;2;;;;;;;4.36;82.63;;;;;
2023/11/04 23:05:24;;;;;;;3.8;2;;;;;;;4.43;82.25;;;;;
2023/11/04 23:15:24;;;;;;;6.9;2.6;;;;;;;4.54;82.1;;;;;
2023/11/04 23:25:24;;;;;;;6.9;2.6;;;;;;;4.77;81.55;;;;;
2023/11/04 23:36:23;;;;;;;6.9;2.6;;;;;;;4.57;80.36;;;;;
2023/11/04 23:46:23;;;;;;;7;3.2;;;;;;;4.2;80.65;;;;;
2023/11/04 23:56:24;;;;;;;7;3.2;;;;;;;3.98;81.17;;;;;
